sensor_id;sensor_type;location;lat;lon;timestamp;P1;durP1;ratioP1;P2;durP2;ratioP2
37237;SDS011;23129;49.662;8.448;2023-09-19T00:00:43;4.65;;;1.80;;
37237;SDS011;23129;49.662;8.448;2023-09-19T00:03:14;1.63;;;1.17;;
37237;SDS011;23129;49.662;8.448;2023-09-19T00:05:43;1.88;;;1.25;;
37237;SDS011;23129;49.662;8.448;2023-09-19T00:08:12;3.05;;;1.40;;
37237;SDS011;23129;49.662;8.448;2023-09-19T00:10:43;2.67;;;1.42;;
37237;SDS011;23129;49.662;8.448;2023-09-19T00:13:12;1.50;;;1.08;;
37237;SDS011;23129;49.662;8.448;2023-09-19T00:15:42;2.33;;;1.38;;
37237;SDS011;23129;49.662;8.448;2023-09-19T00:18:15;3.63;;;1.30;;
37237;SDS011;23129;49.662;8.448;2023-09-19T00:20:45;4.45;;;1.38;;
37237;SDS011;23129;49.662;8.448;2023-09-19T00:23:16;3.42;;;1.20;;
37237;SDS011;23129;49.662;8.448;2023-09-19T00:25:47;5.70;;;1.40;;
37237;SDS011;23129;49.662;8.448;2023-09-19T00:28:16;1.20;;;1.10;;
37237;SDS011;23129;49.662;8.448;2023-09-19T00:30:46;2.55;;;1.25;;
37237;SDS011;23129;49.662;8.448;2023-09-19T00:33:18;12.25;;;1.90;;
37237;SDS011;23129;49.662;8.448;2023-09-19T00:35:47;2.15;;;0.95;;
37237;SDS011;23129;49.662;8.448;2023-09-19T00:38:16;3.95;;;1.60;;
37237;SDS011;23129;49.662;8.448;2023-09-19T00:40:49;1.65;;;1.13;;
37237;SDS011;23129;49.662;8.448;2023-09-19T00:43:18;5.88;;;1.73;;
37237;SDS011;23129;49.662;8.448;2023-09-19T00:45:48;5.55;;;1.80;;
37237;SDS011;23129;49.662;8.448;2023-09-19T00:48:19;3.95;;;1.33;;
37237;SDS011;23129;49.662;8.448;2023-09-19T00:50:49;4.78;;;1.27;;
37237;SDS011;23129;49.662;8.448;2023-09-19T00:53:21;1.45;;;1.35;;
37237;SDS011;23129;49.662;8.448;2023-09-19T00:55:54;1.40;;;1.02;;
37237;SDS011;23129;49.662;8.448;2023-09-19T00:58:23;1.50;;;1.05;;
37237;SDS011;23129;49.662;8.448;2023-09-19T01:00:58;6.53;;;1.35;;
37237;SDS011;23129;49.662;8.448;2023-09-19T01:03:27;2.58;;;1.25;;
37237;SDS011;23129;49.662;8.448;2023-09-19T01:05:56;7.82;;;1.30;;
37237;SDS011;23129;49.662;8.448;2023-09-19T01:08:26;1.95;;;1.27;;
37237;SDS011;23129;49.662;8.448;2023-09-19T01:10:59;3.97;;;1.40;;
37237;SDS011;23129;49.662;8.448;2023-09-19T01:13:33;4.53;;;1.48;;
37237;SDS011;23129;49.662;8.448;2023-09-19T01:16:15;5.32;;;0.98;;
37237;SDS011;23129;49.662;8.448;2023-09-19T01:18:57;2.70;;;1.73;;
37237;SDS011;23129;49.662;8.448;2023-09-19T01:21:40;6.97;;;1.38;;
37237;SDS011;23129;49.662;8.448;2023-09-19T01:24:19;14.45;;;1.38;;
37237;SDS011;23129;49.662;8.448;2023-09-19T01:27:18;4.88;;;1.42;;
37237;SDS011;23129;49.662;8.448;2023-09-19T01:30:09;7.20;;;1.70;;
37237;SDS011;23129;49.662;8.448;2023-09-19T01:32:41;2.05;;;1.08;;
37237;SDS011;23129;49.662;8.448;2023-09-19T01:35:13;1.75;;;1.15;;
37237;SDS011;23129;49.662;8.448;2023-09-19T01:37:41;6.63;;;1.63;;
37237;SDS011;23129;49.662;8.448;2023-09-19T01:40:11;5.78;;;1.30;;
37237;SDS011;23129;49.662;8.448;2023-09-19T01:42:45;5.28;;;1.73;;
37237;SDS011;23129;49.662;8.448;2023-09-19T01:48:18;1.13;;;1.08;;
37237;SDS011;23129;49.662;8.448;2023-09-19T01:50:55;4.47;;;1.90;;
37237;SDS011;23129;49.662;8.448;2023-09-19T01:53:33;2.33;;;1.40;;
37237;SDS011;23129;49.662;8.448;2023-09-19T01:56:05;3.53;;;1.80;;
37237;SDS011;23129;49.662;8.448;2023-09-19T01:58:39;4.15;;;1.52;;
37237;SDS011;23129;49.662;8.448;2023-09-19T02:01:15;3.42;;;1.45;;
37237;SDS011;23129;49.662;8.448;2023-09-19T02:03:47;4.03;;;1.77;;
37237;SDS011;23129;49.662;8.448;2023-09-19T02:06:17;2.75;;;1.70;;
37237;SDS011;23129;49.662;8.448;2023-09-19T02:08:47;4.40;;;1.83;;
37237;SDS011;23129;49.662;8.448;2023-09-19T02:11:18;7.30;;;1.45;;
37237;SDS011;23129;49.662;8.448;2023-09-19T02:13:47;6.78;;;1.70;;
37237;SDS011;23129;49.662;8.448;2023-09-19T02:16:21;2.97;;;1.83;;
37237;SDS011;23129;49.662;8.448;2023-09-19T02:18:50;2.67;;;1.42;;
37237;SDS011;23129;49.662;8.448;2023-09-19T02:21:19;4.18;;;2.28;;
37237;SDS011;23129;49.662;8.448;2023-09-19T02:23:48;2.65;;;1.63;;
37237;SDS011;23129;49.662;8.448;2023-09-19T02:26:17;2.22;;;1.45;;
37237;SDS011;23129;49.662;8.448;2023-09-19T02:28:46;8.60;;;1.70;;
37237;SDS011;23129;49.662;8.448;2023-09-19T02:31:15;8.30;;;1.75;;
37237;SDS011;23129;49.662;8.448;2023-09-19T02:33:46;2.08;;;1.83;;
37237;SDS011;23129;49.662;8.448;2023-09-19T02:36:14;1.52;;;1.30;;
37237;SDS011;23129;49.662;8.448;2023-09-19T02:38:44;3.42;;;1.60;;
37237;SDS011;23129;49.662;8.448;2023-09-19T02:41:14;1.70;;;1.38;;
37237;SDS011;23129;49.662;8.448;2023-09-19T02:43:43;10.88;;;1.80;;
37237;SDS011;23129;49.662;8.448;2023-09-19T02:46:12;2.33;;;1.50;;
37237;SDS011;23129;49.662;8.448;2023-09-19T02:48:41;3.97;;;1.27;;
37237;SDS011;23129;49.662;8.448;2023-09-19T02:51:11;3.65;;;1.52;;
37237;SDS011;23129;49.662;8.448;2023-09-19T02:53:40;2.17;;;1.98;;
37237;SDS011;23129;49.662;8.448;2023-09-19T02:56:09;5.35;;;1.58;;
37237;SDS011;23129;49.662;8.448;2023-09-19T02:58:41;2.75;;;1.63;;
37237;SDS011;23129;49.662;8.448;2023-09-19T03:01:11;2.50;;;1.77;;
37237;SDS011;23129;49.662;8.448;2023-09-19T03:03:41;2.30;;;1.40;;
37237;SDS011;23129;49.662;8.448;2023-09-19T03:06:12;2.45;;;1.42;;
37237;SDS011;23129;49.662;8.448;2023-09-19T03:08:42;3.55;;;1.70;;
37237;SDS011;23129;49.662;8.448;2023-09-19T03:11:11;1.45;;;1.25;;
37237;SDS011;23129;49.662;8.448;2023-09-19T03:13:45;2.55;;;1.52;;
37237;SDS011;23129;49.662;8.448;2023-09-19T03:16:14;1.40;;;1.30;;
37237;SDS011;23129;49.662;8.448;2023-09-19T03:18:43;3.83;;;1.48;;
37237;SDS011;23129;49.662;8.448;2023-09-19T03:21:15;2.50;;;1.60;;
37237;SDS011;23129;49.662;8.448;2023-09-19T03:23:45;1.98;;;1.65;;
37237;SDS011;23129;49.662;8.448;2023-09-19T03:26:14;3.40;;;1.65;;
37237;SDS011;23129;49.662;8.448;2023-09-19T03:28:44;5.22;;;2.05;;
37237;SDS011;23129;49.662;8.448;2023-09-19T03:31:14;8.20;;;2.65;;
37237;SDS011;23129;49.662;8.448;2023-09-19T03:33:43;3.25;;;2.05;;
37237;SDS011;23129;49.662;8.448;2023-09-19T03:36:11;2.72;;;1.60;;
37237;SDS011;23129;49.662;8.448;2023-09-19T03:38:42;5.78;;;2.50;;
37237;SDS011;23129;49.662;8.448;2023-09-19T03:41:11;3.47;;;1.90;;
37237;SDS011;23129;49.662;8.448;2023-09-19T03:43:41;3.00;;;2.35;;
37237;SDS011;23129;49.662;8.448;2023-09-19T03:46:10;8.75;;;2.60;;
37237;SDS011;23129;49.662;8.448;2023-09-19T03:48:40;6.00;;;3.17;;
37237;SDS011;23129;49.662;8.448;2023-09-19T03:51:10;5.43;;;3.42;;
37237;SDS011;23129;49.662;8.448;2023-09-19T03:53:39;3.67;;;2.67;;
37237;SDS011;23129;49.662;8.448;2023-09-19T03:56:09;7.93;;;3.42;;
37237;SDS011;23129;49.662;8.448;2023-09-19T03:58:37;3.15;;;2.80;;
37237;SDS011;23129;49.662;8.448;2023-09-19T04:01:06;12.77;;;4.05;;
37237;SDS011;23129;49.662;8.448;2023-09-19T04:03:35;4.38;;;3.33;;
37237;SDS011;23129;49.662;8.448;2023-09-19T04:06:13;4.63;;;2.78;;
37237;SDS011;23129;49.662;8.448;2023-09-19T04:08:44;3.85;;;3.10;;
37237;SDS011;23129;49.662;8.448;2023-09-19T04:11:14;4.47;;;3.22;;
37237;SDS011;23129;49.662;8.448;2023-09-19T04:13:44;13.15;;;3.58;;
37237;SDS011;23129;49.662;8.448;2023-09-19T04:16:12;9.48;;;3.38;;
37237;SDS011;23129;49.662;8.448;2023-09-19T04:18:41;4.70;;;3.80;;
37237;SDS011;23129;49.662;8.448;2023-09-19T04:21:10;3.22;;;2.80;;
37237;SDS011;23129;49.662;8.448;2023-09-19T04:23:39;5.95;;;3.00;;
37237;SDS011;23129;49.662;8.448;2023-09-19T04:26:09;8.60;;;3.63;;
37237;SDS011;23129;49.662;8.448;2023-09-19T04:28:38;3.30;;;3.00;;
37237;SDS011;23129;49.662;8.448;2023-09-19T04:31:07;4.38;;;3.42;;
37237;SDS011;23129;49.662;8.448;2023-09-19T04:33:36;7.00;;;2.90;;
37237;SDS011;23129;49.662;8.448;2023-09-19T04:36:06;7.85;;;3.08;;
37237;SDS011;23129;49.662;8.448;2023-09-19T04:38:54;7.38;;;2.75;;
37237;SDS011;23129;49.662;8.448;2023-09-19T04:41:25;5.43;;;3.40;;
37237;SDS011;23129;49.662;8.448;2023-09-19T04:43:54;8.88;;;3.33;;
37237;SDS011;23129;49.662;8.448;2023-09-19T04:46:22;8.20;;;3.35;;
37237;SDS011;23129;49.662;8.448;2023-09-19T04:48:51;5.18;;;3.13;;
37237;SDS011;23129;49.662;8.448;2023-09-19T04:51:20;7.18;;;2.83;;
37237;SDS011;23129;49.662;8.448;2023-09-19T04:53:49;8.40;;;2.88;;
37237;SDS011;23129;49.662;8.448;2023-09-19T04:56:18;8.55;;;2.67;;
37237;SDS011;23129;49.662;8.448;2023-09-19T04:58:49;7.18;;;2.83;;
37237;SDS011;23129;49.662;8.448;2023-09-19T05:01:17;11.23;;;2.92;;
37237;SDS011;23129;49.662;8.448;2023-09-19T05:03:49;6.25;;;2.92;;
37237;SDS011;23129;49.662;8.448;2023-09-19T05:06:18;3.03;;;2.70;;
37237;SDS011;23129;49.662;8.448;2023-09-19T05:08:48;6.05;;;2.55;;
37237;SDS011;23129;49.662;8.448;2023-09-19T05:11:17;3.08;;;2.55;;
37237;SDS011;23129;49.662;8.448;2023-09-19T05:13:48;9.25;;;2.58;;
37237;SDS011;23129;49.662;8.448;2023-09-19T05:16:16;4.32;;;2.20;;
37237;SDS011;23129;49.662;8.448;2023-09-19T05:18:45;5.07;;;2.55;;
37237;SDS011;23129;49.662;8.448;2023-09-19T05:21:14;4.57;;;2.30;;
37237;SDS011;23129;49.662;8.448;2023-09-19T05:23:43;4.95;;;2.08;;
37237;SDS011;23129;49.662;8.448;2023-09-19T05:26:12;7.55;;;2.80;;
37237;SDS011;23129;49.662;8.448;2023-09-19T05:28:42;4.30;;;2.38;;
37237;SDS011;23129;49.662;8.448;2023-09-19T05:31:12;5.93;;;2.60;;
37237;SDS011;23129;49.662;8.448;2023-09-19T05:33:42;4.95;;;2.22;;
37237;SDS011;23129;49.662;8.448;2023-09-19T05:36:10;9.25;;;2.85;;
37237;SDS011;23129;49.662;8.448;2023-09-19T05:38:39;5.63;;;2.35;;
37237;SDS011;23129;49.662;8.448;2023-09-19T05:41:08;6.20;;;2.63;;
37237;SDS011;23129;49.662;8.448;2023-09-19T05:43:40;5.90;;;2.22;;
37237;SDS011;23129;49.662;8.448;2023-09-19T05:46:10;5.72;;;2.22;;
37237;SDS011;23129;49.662;8.448;2023-09-19T05:48:42;6.18;;;2.55;;
37237;SDS011;23129;49.662;8.448;2023-09-19T05:51:14;4.65;;;2.00;;
37237;SDS011;23129;49.662;8.448;2023-09-19T05:53:44;7.72;;;2.85;;
37237;SDS011;23129;49.662;8.448;2023-09-19T05:56:14;6.18;;;2.22;;
37237;SDS011;23129;49.662;8.448;2023-09-19T05:58:45;3.38;;;1.90;;
37237;SDS011;23129;49.662;8.448;2023-09-19T06:01:15;4.15;;;2.28;;
37237;SDS011;23129;49.662;8.448;2023-09-19T06:03:44;4.13;;;1.73;;
37237;SDS011;23129;49.662;8.448;2023-09-19T06:06:13;16.85;;;2.80;;
37237;SDS011;23129;49.662;8.448;2023-09-19T06:08:42;4.43;;;1.85;;
37237;SDS011;23129;49.662;8.448;2023-09-19T06:11:12;7.25;;;2.20;;
37237;SDS011;23129;49.662;8.448;2023-09-19T06:13:40;6.75;;;2.33;;
37237;SDS011;23129;49.662;8.448;2023-09-19T06:16:09;8.68;;;2.67;;
37237;SDS011;23129;49.662;8.448;2023-09-19T06:18:39;5.88;;;2.25;;
37237;SDS011;23129;49.662;8.448;2023-09-19T06:21:08;4.80;;;2.30;;
37237;SDS011;23129;49.662;8.448;2023-09-19T06:23:37;5.25;;;1.70;;
37237;SDS011;23129;49.662;8.448;2023-09-19T06:26:06;3.25;;;1.92;;
37237;SDS011;23129;49.662;8.448;2023-09-19T06:28:35;10.13;;;2.38;;
37237;SDS011;23129;49.662;8.448;2023-09-19T06:31:04;6.70;;;1.63;;
37237;SDS011;23129;49.662;8.448;2023-09-19T06:33:36;4.93;;;1.48;;
37237;SDS011;23129;49.662;8.448;2023-09-19T06:36:07;6.18;;;1.60;;
37237;SDS011;23129;49.662;8.448;2023-09-19T06:38:36;2.50;;;1.55;;
37237;SDS011;23129;49.662;8.448;2023-09-19T06:41:07;9.38;;;1.27;;
37237;SDS011;23129;49.662;8.448;2023-09-19T06:43:36;4.70;;;1.52;;
37237;SDS011;23129;49.662;8.448;2023-09-19T06:46:06;4.20;;;1.40;;
37237;SDS011;23129;49.662;8.448;2023-09-19T06:48:34;4.70;;;1.52;;
37237;SDS011;23129;49.662;8.448;2023-09-19T06:51:03;4.68;;;1.27;;
37237;SDS011;23129;49.662;8.448;2023-09-19T06:53:33;5.60;;;1.60;;
37237;SDS011;23129;49.662;8.448;2023-09-19T06:56:03;2.20;;;1.35;;
37237;SDS011;23129;49.662;8.448;2023-09-19T06:58:35;6.43;;;1.35;;
37237;SDS011;23129;49.662;8.448;2023-09-19T07:01:04;12.73;;;1.92;;
37237;SDS011;23129;49.662;8.448;2023-09-19T07:03:33;4.22;;;1.33;;
37237;SDS011;23129;49.662;8.448;2023-09-19T07:06:03;7.15;;;1.08;;
37237;SDS011;23129;49.662;8.448;2023-09-19T07:08:33;5.32;;;1.35;;
37237;SDS011;23129;49.662;8.448;2023-09-19T07:11:02;4.60;;;1.75;;
37237;SDS011;23129;49.662;8.448;2023-09-19T07:13:32;9.40;;;2.00;;
37237;SDS011;23129;49.662;8.448;2023-09-19T07:16:01;3.78;;;1.42;;
37237;SDS011;23129;49.662;8.448;2023-09-19T07:18:30;6.38;;;1.38;;
37237;SDS011;23129;49.662;8.448;2023-09-19T07:20:59;4.10;;;1.27;;
37237;SDS011;23129;49.662;8.448;2023-09-19T07:23:31;3.90;;;1.17;;
37237;SDS011;23129;49.662;8.448;2023-09-19T07:26:01;10.93;;;1.73;;
37237;SDS011;23129;49.662;8.448;2023-09-19T07:28:31;8.82;;;2.00;;
37237;SDS011;23129;49.662;8.448;2023-09-19T07:31:01;6.07;;;1.42;;
37237;SDS011;23129;49.662;8.448;2023-09-19T07:33:31;8.82;;;1.85;;
37237;SDS011;23129;49.662;8.448;2023-09-19T07:36:00;2.33;;;0.82;;
37237;SDS011;23129;49.662;8.448;2023-09-19T07:38:29;4.28;;;1.15;;
37237;SDS011;23129;49.662;8.448;2023-09-19T07:41:01;5.32;;;0.98;;
37237;SDS011;23129;49.662;8.448;2023-09-19T07:43:31;13.20;;;1.38;;
37237;SDS011;23129;49.662;8.448;2023-09-19T07:46:02;2.47;;;1.23;;
37237;SDS011;23129;49.662;8.448;2023-09-19T07:48:33;5.50;;;1.10;;
37237;SDS011;23129;49.662;8.448;2023-09-19T07:51:04;6.22;;;1.40;;
37237;SDS011;23129;49.662;8.448;2023-09-19T07:53:35;8.48;;;1.35;;
37237;SDS011;23129;49.662;8.448;2023-09-19T07:56:06;4.03;;;1.27;;
37237;SDS011;23129;49.662;8.448;2023-09-19T07:58:38;4.43;;;1.30;;
37237;SDS011;23129;49.662;8.448;2023-09-19T08:01:10;3.85;;;1.40;;
37237;SDS011;23129;49.662;8.448;2023-09-19T08:03:40;4.55;;;1.00;;
37237;SDS011;23129;49.662;8.448;2023-09-19T08:06:10;5.93;;;1.23;;
37237;SDS011;23129;49.662;8.448;2023-09-19T08:08:40;3.72;;;1.08;;
37237;SDS011;23129;49.662;8.448;2023-09-19T08:11:11;5.45;;;1.08;;
37237;SDS011;23129;49.662;8.448;2023-09-19T08:13:41;4.05;;;0.93;;
37237;SDS011;23129;49.662;8.448;2023-09-19T08:16:12;3.05;;;1.15;;
37237;SDS011;23129;49.662;8.448;2023-09-19T08:18:42;2.05;;;0.80;;
37237;SDS011;23129;49.662;8.448;2023-09-19T08:21:11;5.20;;;1.63;;
37237;SDS011;23129;49.662;8.448;2023-09-19T08:23:43;2.70;;;1.17;;
37237;SDS011;23129;49.662;8.448;2023-09-19T08:26:13;6.22;;;1.27;;
37237;SDS011;23129;49.662;8.448;2023-09-19T08:28:41;3.33;;;1.27;;
37237;SDS011;23129;49.662;8.448;2023-09-19T08:31:10;5.15;;;1.42;;
37237;SDS011;23129;49.662;8.448;2023-09-19T08:33:39;7.00;;;1.02;;
37237;SDS011;23129;49.662;8.448;2023-09-19T08:36:09;6.18;;;1.33;;
37237;SDS011;23129;49.662;8.448;2023-09-19T08:38:38;3.60;;;1.10;;
37237;SDS011;23129;49.662;8.448;2023-09-19T08:41:07;3.83;;;1.50;;
37237;SDS011;23129;49.662;8.448;2023-09-19T08:43:37;6.43;;;1.27;;
37237;SDS011;23129;49.662;8.448;2023-09-19T08:46:09;3.78;;;1.27;;
37237;SDS011;23129;49.662;8.448;2023-09-19T08:48:43;4.25;;;1.40;;
37237;SDS011;23129;49.662;8.448;2023-09-19T08:51:18;9.30;;;1.42;;
37237;SDS011;23129;49.662;8.448;2023-09-19T08:53:56;12.70;;;1.85;;
37237;SDS011;23129;49.662;8.448;2023-09-19T08:56:31;4.93;;;1.30;;
37237;SDS011;23129;49.662;8.448;2023-09-19T08:59:03;5.60;;;1.60;;
37237;SDS011;23129;49.662;8.448;2023-09-19T09:01:34;4.25;;;1.23;;
37237;SDS011;23129;49.662;8.448;2023-09-19T09:04:04;6.90;;;1.65;;
37237;SDS011;23129;49.662;8.448;2023-09-19T09:06:40;7.88;;;1.38;;
37237;SDS011;23129;49.662;8.448;2023-09-19T09:09:10;12.98;;;1.77;;
37237;SDS011;23129;49.662;8.448;2023-09-19T09:11:39;4.40;;;1.35;;
37237;SDS011;23129;49.662;8.448;2023-09-19T09:14:09;10.20;;;1.77;;
37237;SDS011;23129;49.662;8.448;2023-09-19T09:16:39;5.75;;;1.25;;
37237;SDS011;23129;49.662;8.448;2023-09-19T09:19:08;5.47;;;1.25;;
37237;SDS011;23129;49.662;8.448;2023-09-19T09:21:37;7.65;;;1.40;;
37237;SDS011;23129;49.662;8.448;2023-09-19T09:26:55;5.18;;;1.60;;
37237;SDS011;23129;49.662;8.448;2023-09-19T09:32:16;11.70;;;1.67;;
37237;SDS011;23129;49.662;8.448;2023-09-19T09:34:50;2.25;;;1.58;;
37237;SDS011;23129;49.662;8.448;2023-09-19T09:37:22;2.72;;;1.10;;
37237;SDS011;23129;49.662;8.448;2023-09-19T09:39:53;5.57;;;1.63;;
37237;SDS011;23129;49.662;8.448;2023-09-19T09:42:31;8.98;;;1.98;;
37237;SDS011;23129;49.662;8.448;2023-09-19T09:45:18;6.18;;;1.48;;
37237;SDS011;23129;49.662;8.448;2023-09-19T09:47:55;8.50;;;1.48;;
37237;SDS011;23129;49.662;8.448;2023-09-19T09:50:26;2.72;;;1.20;;
37237;SDS011;23129;49.662;8.448;2023-09-19T09:53:05;6.85;;;1.70;;
37237;SDS011;23129;49.662;8.448;2023-09-19T09:55:58;4.85;;;1.48;;
37237;SDS011;23129;49.662;8.448;2023-09-19T09:58:32;5.50;;;1.60;;
37237;SDS011;23129;49.662;8.448;2023-09-19T10:01:04;7.63;;;1.60;;
37237;SDS011;23129;49.662;8.448;2023-09-19T10:03:37;5.22;;;1.45;;
37237;SDS011;23129;49.662;8.448;2023-09-19T10:06:09;7.88;;;2.33;;
37237;SDS011;23129;49.662;8.448;2023-09-19T10:08:58;6.57;;;1.33;;
37237;SDS011;23129;49.662;8.448;2023-09-19T10:11:38;5.35;;;2.00;;
37237;SDS011;23129;49.662;8.448;2023-09-19T10:14:10;5.85;;;1.75;;
37237;SDS011;23129;49.662;8.448;2023-09-19T10:16:44;3.63;;;1.40;;
37237;SDS011;23129;49.662;8.448;2023-09-19T10:19:15;8.15;;;1.45;;
37237;SDS011;23129;49.662;8.448;2023-09-19T10:21:53;8.00;;;1.42;;
37237;SDS011;23129;49.662;8.448;2023-09-19T10:24:23;5.72;;;1.70;;
37237;SDS011;23129;49.662;8.448;2023-09-19T10:26:53;9.25;;;1.80;;
37237;SDS011;23129;49.662;8.448;2023-09-19T10:29:24;7.55;;;1.38;;
37237;SDS011;23129;49.662;8.448;2023-09-19T10:31:58;8.75;;;1.58;;
37237;SDS011;23129;49.662;8.448;2023-09-19T10:34:28;5.22;;;1.33;;
37237;SDS011;23129;49.662;8.448;2023-09-19T10:36:58;4.57;;;1.05;;
37237;SDS011;23129;49.662;8.448;2023-09-19T10:39:32;3.70;;;1.13;;
37237;SDS011;23129;49.662;8.448;2023-09-19T10:42:02;5.40;;;1.40;;
37237;SDS011;23129;49.662;8.448;2023-09-19T10:44:33;8.50;;;1.60;;
37237;SDS011;23129;49.662;8.448;2023-09-19T10:47:07;10.57;;;1.30;;
37237;SDS011;23129;49.662;8.448;2023-09-19T10:49:42;8.45;;;1.42;;
37237;SDS011;23129;49.662;8.448;2023-09-19T10:52:13;4.95;;;1.13;;
37237;SDS011;23129;49.662;8.448;2023-09-19T10:54:47;4.83;;;1.30;;
37237;SDS011;23129;49.662;8.448;2023-09-19T10:57:21;5.70;;;1.60;;
37237;SDS011;23129;49.662;8.448;2023-09-19T11:00:00;8.20;;;1.17;;
37237;SDS011;23129;49.662;8.448;2023-09-19T11:06:00;4.53;;;1.20;;
37237;SDS011;23129;49.662;8.448;2023-09-19T11:11:40;2.75;;;1.27;;
37237;SDS011;23129;49.662;8.448;2023-09-19T11:14:16;7.07;;;1.63;;
37237;SDS011;23129;49.662;8.448;2023-09-19T11:17:30;7.90;;;1.98;;
37237;SDS011;23129;49.662;8.448;2023-09-19T11:20:20;6.75;;;1.90;;
37237;SDS011;23129;49.662;8.448;2023-09-19T11:23:17;1.20;;;0.88;;
37237;SDS011;23129;49.662;8.448;2023-09-19T11:25:49;6.05;;;1.17;;
37237;SDS011;23129;49.662;8.448;2023-09-19T11:28:29;1.73;;;1.00;;
37237;SDS011;23129;49.662;8.448;2023-09-19T11:34:45;2.97;;;0.95;;
37237;SDS011;23129;49.662;8.448;2023-09-19T11:40:34;2.45;;;1.00;;
37237;SDS011;23129;49.662;8.448;2023-09-19T11:46:02;4.35;;;1.55;;
37237;SDS011;23129;49.662;8.448;2023-09-19T11:48:40;5.55;;;1.05;;
37237;SDS011;23129;49.662;8.448;2023-09-19T11:51:11;4.68;;;1.25;;
37237;SDS011;23129;49.662;8.448;2023-09-19T11:53:54;4.68;;;1.08;;
37237;SDS011;23129;49.662;8.448;2023-09-19T11:56:27;3.43;;;1.10;;
37237;SDS011;23129;49.662;8.448;2023-09-19T11:58:58;3.50;;;0.93;;
37237;SDS011;23129;49.662;8.448;2023-09-19T12:01:29;4.28;;;1.00;;
37237;SDS011;23129;49.662;8.448;2023-09-19T12:04:01;4.50;;;1.02;;
37237;SDS011;23129;49.662;8.448;2023-09-19T12:06:31;8.93;;;1.45;;
37237;SDS011;23129;49.662;8.448;2023-09-19T12:09:03;2.00;;;0.80;;
37237;SDS011;23129;49.662;8.448;2023-09-19T12:11:40;9.38;;;1.27;;
37237;SDS011;23129;49.662;8.448;2023-09-19T12:14:11;4.35;;;0.85;;
37237;SDS011;23129;49.662;8.448;2023-09-19T12:16:50;4.22;;;1.25;;
37237;SDS011;23129;49.662;8.448;2023-09-19T12:19:22;3.83;;;1.10;;
37237;SDS011;23129;49.662;8.448;2023-09-19T12:21:54;5.13;;;1.10;;
37237;SDS011;23129;49.662;8.448;2023-09-19T12:24:32;5.63;;;1.25;;
37237;SDS011;23129;49.662;8.448;2023-09-19T12:27:05;6.88;;;1.27;;
37237;SDS011;23129;49.662;8.448;2023-09-19T12:29:41;7.85;;;1.15;;
37237;SDS011;23129;49.662;8.448;2023-09-19T12:32:11;1.42;;;0.95;;
37237;SDS011;23129;49.662;8.448;2023-09-19T12:34:50;1.42;;;1.10;;
37237;SDS011;23129;49.662;8.448;2023-09-19T12:37:20;3.53;;;0.65;;
37237;SDS011;23129;49.662;8.448;2023-09-19T12:39:51;2.55;;;1.00;;
37237;SDS011;23129;49.662;8.448;2023-09-19T12:42:21;2.25;;;0.60;;
37237;SDS011;23129;49.662;8.448;2023-09-19T12:44:55;9.70;;;1.07;;
37237;SDS011;23129;49.662;8.448;2023-09-19T12:47:27;3.85;;;1.25;;
37237;SDS011;23129;49.662;8.448;2023-09-19T12:50:10;5.18;;;1.13;;
37237;SDS011;23129;49.662;8.448;2023-09-19T12:52:45;3.33;;;1.30;;
37237;SDS011;23129;49.662;8.448;2023-09-19T12:55:24;3.10;;;0.63;;
37237;SDS011;23129;49.662;8.448;2023-09-19T12:57:58;4.07;;;1.00;;
37237;SDS011;23129;49.662;8.448;2023-09-19T13:00:36;3.50;;;1.23;;
37237;SDS011;23129;49.662;8.448;2023-09-19T13:03:14;4.43;;;0.80;;
37237;SDS011;23129;49.662;8.448;2023-09-19T13:05:50;3.95;;;1.48;;
37237;SDS011;23129;49.662;8.448;2023-09-19T13:08:25;2.42;;;1.00;;
37237;SDS011;23129;49.662;8.448;2023-09-19T13:11:11;1.90;;;0.98;;
37237;SDS011;23129;49.662;8.448;2023-09-19T13:13:42;4.77;;;1.77;;
37237;SDS011;23129;49.662;8.448;2023-09-19T13:16:16;5.25;;;1.00;;
37237;SDS011;23129;49.662;8.448;2023-09-19T13:18:49;2.13;;;1.23;;
37237;SDS011;23129;49.662;8.448;2023-09-19T13:21:29;6.05;;;1.17;;
37237;SDS011;23129;49.662;8.448;2023-09-19T13:24:19;3.40;;;1.00;;
37237;SDS011;23129;49.662;8.448;2023-09-19T13:26:53;1.58;;;1.30;;
37237;SDS011;23129;49.662;8.448;2023-09-19T13:29:22;1.75;;;1.10;;
37237;SDS011;23129;49.662;8.448;2023-09-19T13:31:52;4.13;;;1.15;;
37237;SDS011;23129;49.662;8.448;2023-09-19T13:34:21;9.15;;;1.40;;
37237;SDS011;23129;49.662;8.448;2023-09-19T13:36:49;1.70;;;0.90;;
37237;SDS011;23129;49.662;8.448;2023-09-19T13:39:18;4.72;;;1.80;;
37237;SDS011;23129;49.662;8.448;2023-09-19T13:41:46;2.60;;;0.82;;
37237;SDS011;23129;49.662;8.448;2023-09-19T13:44:17;1.42;;;0.63;;
37237;SDS011;23129;49.662;8.448;2023-09-19T13:46:46;3.13;;;1.08;;
37237;SDS011;23129;49.662;8.448;2023-09-19T13:49:14;3.08;;;0.88;;
37237;SDS011;23129;49.662;8.448;2023-09-19T13:51:47;1.42;;;0.70;;
37237;SDS011;23129;49.662;8.448;2023-09-19T13:54:16;1.20;;;0.75;;
37237;SDS011;23129;49.662;8.448;2023-09-19T13:56:47;3.30;;;0.70;;
37237;SDS011;23129;49.662;8.448;2023-09-19T13:59:15;3.22;;;1.13;;
37237;SDS011;23129;49.662;8.448;2023-09-19T14:01:47;5.18;;;0.80;;
37237;SDS011;23129;49.662;8.448;2023-09-19T14:04:16;1.15;;;0.63;;
37237;SDS011;23129;49.662;8.448;2023-09-19T14:06:45;2.13;;;1.00;;
37237;SDS011;23129;49.662;8.448;2023-09-19T14:09:13;1.30;;;0.98;;
37237;SDS011;23129;49.662;8.448;2023-09-19T14:11:46;5.13;;;1.00;;
37237;SDS011;23129;49.662;8.448;2023-09-19T14:14:14;6.35;;;1.15;;
37237;SDS011;23129;49.662;8.448;2023-09-19T14:16:44;3.28;;;0.90;;
37237;SDS011;23129;49.662;8.448;2023-09-19T14:19:13;1.73;;;0.98;;
37237;SDS011;23129;49.662;8.448;2023-09-19T14:21:42;1.17;;;0.68;;
37237;SDS011;23129;49.662;8.448;2023-09-19T14:24:14;4.03;;;0.88;;
37237;SDS011;23129;49.662;8.448;2023-09-19T14:26:45;7.75;;;1.33;;
37237;SDS011;23129;49.662;8.448;2023-09-19T14:29:14;6.28;;;0.90;;
37237;SDS011;23129;49.662;8.448;2023-09-19T14:31:44;3.65;;;1.30;;
37237;SDS011;23129;49.662;8.448;2023-09-19T14:34:13;2.58;;;1.30;;
37237;SDS011;23129;49.662;8.448;2023-09-19T14:36:43;1.52;;;0.70;;
37237;SDS011;23129;49.662;8.448;2023-09-19T14:39:12;8.90;;;1.17;;
37237;SDS011;23129;49.662;8.448;2023-09-19T14:41:40;1.65;;;0.85;;
37237;SDS011;23129;49.662;8.448;2023-09-19T14:44:09;2.15;;;1.00;;
37237;SDS011;23129;49.662;8.448;2023-09-19T14:46:38;6.18;;;1.35;;
37237;SDS011;23129;49.662;8.448;2023-09-19T14:49:08;6.50;;;1.05;;
37237;SDS011;23129;49.662;8.448;2023-09-19T14:51:37;1.77;;;1.00;;
37237;SDS011;23129;49.662;8.448;2023-09-19T14:54:07;1.38;;;1.02;;
37237;SDS011;23129;49.662;8.448;2023-09-19T14:56:35;4.10;;;1.00;;
37237;SDS011;23129;49.662;8.448;2023-09-19T14:59:04;3.03;;;0.88;;
37237;SDS011;23129;49.662;8.448;2023-09-19T15:01:33;7.72;;;1.40;;
37237;SDS011;23129;49.662;8.448;2023-09-19T15:04:02;3.08;;;0.70;;
37237;SDS011;23129;49.662;8.448;2023-09-19T15:06:33;1.90;;;0.75;;
37237;SDS011;23129;49.662;8.448;2023-09-19T15:09:01;5.10;;;0.60;;
37237;SDS011;23129;49.662;8.448;2023-09-19T15:11:31;1.25;;;0.75;;
37237;SDS011;23129;49.662;8.448;2023-09-19T15:14:00;8.10;;;1.05;;
37237;SDS011;23129;49.662;8.448;2023-09-19T15:16:30;4.50;;;1.08;;
37237;SDS011;23129;49.662;8.448;2023-09-19T15:18:59;4.25;;;1.10;;
37237;SDS011;23129;49.662;8.448;2023-09-19T15:21:27;5.70;;;0.80;;
37237;SDS011;23129;49.662;8.448;2023-09-19T15:23:57;2.53;;;0.60;;
37237;SDS011;23129;49.662;8.448;2023-09-19T15:26:26;1.05;;;0.50;;
37237;SDS011;23129;49.662;8.448;2023-09-19T15:28:54;3.75;;;1.05;;
37237;SDS011;23129;49.662;8.448;2023-09-19T15:31:23;1.42;;;0.80;;
37237;SDS011;23129;49.662;8.448;2023-09-19T15:33:52;2.78;;;0.68;;
37237;SDS011;23129;49.662;8.448;2023-09-19T15:36:21;0.50;;;0.40;;
37237;SDS011;23129;49.662;8.448;2023-09-19T15:38:58;3.13;;;0.70;;